Time;durP1;ratioP1;P1;durP2;ratioP2;P2;SDS_P1;SDS_P2;PMS_P1;PMS_P2;Temp;Humidity;BMP_temperature;BMP_pressure;BME280_temperature;BME280_humidity;BME280_pressure;Samples;Min_cycle;Max_cycle;Signal;HPM_P1;HPM_P2
2022/09/28 00:02:17;;;;;;;1.35;0.50;;;;;;;;;;5135260;27;20209;-67
2022/09/28 00:04:46;;;;;;;1.42;0.70;;;;;;;;;;5133715;27;20285;-66
2022/09/28 00:07:13;;;;;;;2.50;0.70;;;;;;;;;;5129390;27;20629;-65
2022/09/28 00:09:41;;;;;;;1.25;0.65;;;;;;;;;;5133639;27;20288;-65
2022/09/28 00:12:08;;;;;;;1.02;0.60;;;;;;;;;;5138709;27;20688;-65
2022/09/28 00:14:35;;;;;;;0.95;0.65;;;;;;;;;;5139379;27;20209;-66
2022/09/28 00:17:03;;;;;;;1.38;0.60;;;;;;;;;;5138885;27;20194;-65
2022/09/28 00:19:30;;;;;;;1.23;0.50;;;;;;;;;;5139493;27;20222;-65
2022/09/28 00:21:59;;;;;;;1.10;0.60;;;;;;;;;;5139251;27;20198;-66
2022/09/28 00:24:28;;;;;;;1.00;0.70;;;;;;;;;;5139413;27;20194;-66
2022/09/28 00:26:56;;;;;;;2.20;0.73;;;;;;;;;;5139135;27;20884;-66
2022/09/28 00:29:25;;;;;;;1.05;0.70;;;;;;;;;;5138254;27;20258;-66
2022/09/28 00:31:56;;;;;;;0.70;0.60;;;;;;;;;;5138677;27;20555;-66
2022/09/28 00:34:23;;;;;;;1.10;0.50;;;;;;;;;;5139581;27;20487;-65
2022/09/28 00:36:50;;;;;;;0.70;0.60;;;;;;;;;;5139366;27;20263;-66
2022/09/28 00:39:20;;;;;;;0.50;0.50;;;;;;;;;;5138717;27;20305;-66
2022/09/28 00:41:48;;;;;;;0.73;0.60;;;;;;;;;;5139112;27;20209;-66
2022/09/28 00:44:34;;;;;;;0.57;0.52;;;;;;;;;;5137712;27;20198;-65
2022/09/28 00:47:04;;;;;;;0.60;0.60;;;;;;;;;;5123954;27;20199;-66
2022/09/28 00:49:35;;;;;;;2.75;0.60;;;;;;;;;;5130793;27;20194;-66
2022/09/28 00:52:03;;;;;;;1.48;0.57;;;;;;;;;;5139249;27;20198;-65
2022/09/28 00:54:32;;;;;;;1.27;0.55;;;;;;;;;;5139377;27;20557;-65
2022/09/28 00:57:01;;;;;;;0.70;0.40;;;;;;;;;;5138812;27;20256;-66
2022/09/28 00:59:28;;;;;;;0.77;0.55;;;;;;;;;;5137317;27;20246;-66
2022/09/28 01:01:56;;;;;;;0.60;0.60;;;;;;;;;;5138578;27;20202;-66
2022/09/28 01:04:24;;;;;;;1.20;0.60;;;;;;;;;;5138549;27;20568;-66
2022/09/28 01:06:52;;;;;;;0.60;0.50;;;;;;;;;;5138706;27;20242;-66
2022/09/28 01:09:20;;;;;;;0.50;0.40;;;;;;;;;;5138602;27;20245;-65
2022/09/28 01:11:49;;;;;;;0.75;0.57;;;;;;;;;;5138643;27;20249;-65
2022/09/28 01:14:17;;;;;;;0.45;0.40;;;;;;;;;;5131004;27;20226;-67
2022/09/28 01:16:48;;;;;;;0.55;0.50;;;;;;;;;;5125134;27;20198;-65
2022/09/28 01:19:23;;;;;;;0.82;0.52;;;;;;;;;;5138547;27;20316;-66
2022/09/28 01:21:53;;;;;;;0.90;0.60;;;;;;;;;;5131254;27;20719;-65
2022/09/28 01:24:32;;;;;;;1.67;0.50;;;;;;;;;;5138752;27;20595;-66
2022/09/28 01:27:14;;;;;;;1.77;0.57;;;;;;;;;;5138629;27;20555;-66
2022/09/28 01:29:53;;;;;;;1.35;0.50;;;;;;;;;;5138399;27;20198;-66
2022/09/28 01:32:30;;;;;;;1.30;0.65;;;;;;;;;;5138886;27;20202;-66
2022/09/28 01:34:59;;;;;;;0.70;0.40;;;;;;;;;;5138247;27;20270;-67
2022/09/28 01:37:30;;;;;;;0.50;0.50;;;;;;;;;;5138118;27;20210;-67
2022/09/28 01:39:59;;;;;;;0.45;0.40;;;;;;;;;;5138023;27;20501;-65
2022/09/28 01:42:29;;;;;;;0.60;0.55;;;;;;;;;;5138576;28;20293;-66
2022/09/28 01:45:01;;;;;;;1.00;0.47;;;;;;;;;;5138202;27;20285;-65
2022/09/28 01:47:29;;;;;;;1.10;0.40;;;;;;;;;;5137977;28;20625;-66
2022/09/28 01:50:00;;;;;;;0.50;0.50;;;;;;;;;;5137797;27;20276;-66
2022/09/28 01:52:30;;;;;;;0.63;0.40;;;;;;;;;;5137991;28;20202;-66
2022/09/28 01:54:59;;;;;;;1.23;0.40;;;;;;;;;;5138354;28;20232;-66
2022/09/28 01:57:31;;;;;;;0.50;0.40;;;;;;;;;;5135073;28;20231;-66
2022/09/28 02:00:02;;;;;;;0.55;0.40;;;;;;;;;;5132078;28;20222;-66
2022/09/28 02:02:33;;;;;;;0.40;0.40;;;;;;;;;;5138019;27;20213;-66
2022/09/28 02:05:02;;;;;;;0.60;0.43;;;;;;;;;;5138474;27;20609;-66
2022/09/28 02:07:32;;;;;;;0.30;0.30;;;;;;;;;;5137508;27;20243;-66
2022/09/28 02:10:01;;;;;;;0.50;0.50;;;;;;;;;;5134188;28;20195;-66
2022/09/28 02:12:32;;;;;;;0.70;0.50;;;;;;;;;;5140153;27;20221;-66
2022/09/28 02:15:02;;;;;;;0.45;0.30;;;;;;;;;;5141629;27;20571;-66
2022/09/28 02:17:30;;;;;;;0.52;0.50;;;;;;;;;;5142376;27;20234;-66
2022/09/28 02:19:57;;;;;;;0.45;0.40;;;;;;;;;;5140773;27;20312;-66
2022/09/28 02:22:26;;;;;;;0.32;0.30;;;;;;;;;;5141889;27;20210;-66
2022/09/28 02:24:56;;;;;;;0.45;0.45;;;;;;;;;;5141912;27;20210;-66
2022/09/28 02:27:30;;;;;;;0.43;0.40;;;;;;;;;;5140174;27;20488;-66
2022/09/28 02:29:58;;;;;;;0.55;0.50;;;;;;;;;;5141929;27;20198;-66
2022/09/28 02:32:26;;;;;;;0.50;0.50;;;;;;;;;;5141636;27;20289;-66
2022/09/28 02:34:55;;;;;;;0.50;0.50;;;;;;;;;;5141715;27;20202;-66
2022/09/28 02:37:23;;;;;;;0.40;0.40;;;;;;;;;;5140926;27;20202;-66
2022/09/28 02:39:50;;;;;;;0.75;0.50;;;;;;;;;;5141811;27;20226;-66
2022/09/28 02:42:22;;;;;;;0.40;0.40;;;;;;;;;;5140955;27;20202;-66
2022/09/28 02:45:01;;;;;;;0.55;0.43;;;;;;;;;;5140855;27;20198;-66
2022/09/28 02:47:37;;;;;;;0.57;0.30;;;;;;;;;;5140665;27;20571;-66
2022/09/28 02:50:12;;;;;;;0.60;0.43;;;;;;;;;;5141471;27;20198;-66
2022/09/28 02:52:47;;;;;;;0.35;0.30;;;;;;;;;;5141039;27;20212;-66
2022/09/28 02:55:25;;;;;;;0.47;0.30;;;;;;;;;;5141188;27;20210;-66
2022/09/28 02:58:05;;;;;;;0.40;0.40;;;;;;;;;;5140694;27;20213;-66
2022/09/28 03:00:35;;;;;;;0.40;0.40;;;;;;;;;;5140480;27;20222;-66
2022/09/28 03:03:08;;;;;;;0.40;0.40;;;;;;;;;;5140936;27;20202;-65
2022/09/28 03:05:39;;;;;;;0.40;0.40;;;;;;;;;;5141168;27;20256;-66
2022/09/28 03:08:08;;;;;;;0.40;0.40;;;;;;;;;;5140377;27;20230;-66
2022/09/28 03:10:37;;;;;;;0.40;0.40;;;;;;;;;;5141292;27;20226;-66
2022/09/28 03:13:06;;;;;;;0.40;0.40;;;;;;;;;;5141007;27;20225;-66
2022/09/28 03:15:34;;;;;;;0.60;0.50;;;;;;;;;;5140310;27;20277;-66
2022/09/28 03:18:01;;;;;;;0.43;0.43;;;;;;;;;;5141191;27;20249;-66
2022/09/28 03:20:32;;;;;;;0.50;0.43;;;;;;;;;;5140364;27;20837;-66
2022/09/28 03:23:00;;;;;;;0.40;0.40;;;;;;;;;;5140182;27;20613;-66
2022/09/28 03:25:27;;;;;;;0.30;0.30;;;;;;;;;;5140045;27;20281;-66
2022/09/28 03:27:55;;;;;;;0.50;0.50;;;;;;;;;;5140165;27;20202;-66
2022/09/28 03:30:22;;;;;;;0.43;0.40;;;;;;;;;;5140962;27;20198;-66
2022/09/28 03:32:58;;;;;;;0.40;0.40;;;;;;;;;;5140615;27;20688;-66
2022/09/28 03:35:25;;;;;;;0.30;0.30;;;;;;;;;;5138966;27;20198;-66
2022/09/28 03:37:56;;;;;;;0.40;0.40;;;;;;;;;;5140622;27;20238;-66
2022/09/28 03:40:23;;;;;;;0.60;0.50;;;;;;;;;;5140330;27;20230;-67
2022/09/28 03:42:51;;;;;;;0.50;0.40;;;;;;;;;;5139957;27;20212;-66
2022/09/28 03:45:18;;;;;;;0.40;0.40;;;;;;;;;;5139334;27;20198;-66
2022/09/28 03:47:46;;;;;;;0.40;0.40;;;;;;;;;;5140240;27;20202;-67
2022/09/28 03:50:14;;;;;;;0.47;0.47;;;;;;;;;;5140456;27;20654;-66
2022/09/28 03:52:41;;;;;;;0.40;0.40;;;;;;;;;;5140202;27;20216;-67
2022/09/28 03:55:11;;;;;;;0.40;0.40;;;;;;;;;;5139248;27;20586;-66
2022/09/28 03:57:38;;;;;;;0.30;0.30;;;;;;;;;;5139755;27;20294;-66
2022/09/28 04:00:07;;;;;;;0.55;0.40;;;;;;;;;;5139951;27;20218;-66
2022/09/28 04:02:34;;;;;;;0.50;0.50;;;;;;;;;;5138189;27;20249;-66
2022/09/28 04:05:02;;;;;;;0.85;0.47;;;;;;;;;;5139587;27;20213;-66
2022/09/28 04:07:29;;;;;;;0.30;0.30;;;;;;;;;;5139624;27;20285;-66
2022/09/28 04:09:57;;;;;;;0.40;0.40;;;;;;;;;;5139608;27;20217;-66
2022/09/28 04:12:25;;;;;;;0.45;0.40;;;;;;;;;;5138507;27;20259;-66
2022/09/28 04:14:53;;;;;;;0.73;0.50;;;;;;;;;;5139156;27;20238;-66
2022/09/28 04:17:20;;;;;;;0.45;0.40;;;;;;;;;;5138858;27;20310;-66
2022/09/28 04:19:48;;;;;;;0.40;0.40;;;;;;;;;;5138505;27;20325;-66
2022/09/28 04:22:15;;;;;;;0.35;0.30;;;;;;;;;;5137421;27;20289;-65
2022/09/28 04:24:43;;;;;;;0.47;0.47;;;;;;;;;;5138861;27;20234;-66
2022/09/28 04:29:57;;;;;;;0.50;0.40;;;;;;;;;;5138262;27;20696;-67
2022/09/28 04:32:24;;;;;;;0.73;0.50;;;;;;;;;;5138087;27;20222;-68
2022/09/28 04:34:52;;;;;;;0.52;0.30;;;;;;;;;;5138323;27;20201;-66
2022/09/28 04:37:19;;;;;;;0.40;0.30;;;;;;;;;;5138900;27;20260;-65
2022/09/28 04:39:47;;;;;;;0.30;0.30;;;;;;;;;;5137912;27;20261;-66
2022/09/28 04:42:14;;;;;;;0.40;0.40;;;;;;;;;;5137053;27;20267;-66
2022/09/28 04:44:42;;;;;;;0.40;0.40;;;;;;;;;;5129036;27;20205;-66
2022/09/28 04:47:11;;;;;;;0.30;0.30;;;;;;;;;;5136798;27;20238;-66
2022/09/28 04:49:38;;;;;;;0.40;0.40;;;;;;;;;;5137451;27;20208;-66
2022/09/28 04:52:06;;;;;;;0.50;0.50;;;;;;;;;;5136431;27;20203;-66
2022/09/28 04:54:34;;;;;;;0.45;0.35;;;;;;;;;;5137486;27;20485;-66
2022/09/28 04:57:02;;;;;;;0.43;0.43;;;;;;;;;;5136701;27;20199;-67
2022/09/28 04:59:30;;;;;;;0.60;0.40;;;;;;;;;;5136969;27;20209;-65
2022/09/28 05:01:57;;;;;;;0.68;0.40;;;;;;;;;;5129441;27;20267;-65
2022/09/28 05:04:27;;;;;;;1.48;0.40;;;;;;;;;;5134302;27;20787;-66
2022/09/28 05:06:54;;;;;;;0.95;0.50;;;;;;;;;;5120869;27;20241;-65
2022/09/28 05:09:21;;;;;;;0.45;0.40;;;;;;;;;;5115211;28;20203;-65
2022/09/28 05:11:51;;;;;;;0.40;0.40;;;;;;;;;;5132493;27;20261;-65
2022/09/28 05:14:20;;;;;;;0.40;0.40;;;;;;;;;;5135936;27;20214;-66
2022/09/28 05:16:48;;;;;;;0.40;0.40;;;;;;;;;;5136035;27;20202;-65
2022/09/28 05:19:15;;;;;;;0.57;0.40;;;;;;;;;;5135953;27;20237;-66
2022/09/28 05:21:45;;;;;;;0.32;0.32;;;;;;;;;;5135778;27;20261;-67
2022/09/28 05:24:13;;;;;;;0.40;0.40;;;;;;;;;;5135726;27;20643;-66
2022/09/28 05:26:40;;;;;;;0.40;0.40;;;;;;;;;;5136827;27;20517;-66
2022/09/28 05:29:08;;;;;;;0.50;0.40;;;;;;;;;;5135707;27;20198;-66
2022/09/28 05:31:35;;;;;;;0.40;0.40;;;;;;;;;;5135216;27;20241;-66
2022/09/28 05:34:03;;;;;;;0.40;0.40;;;;;;;;;;5135851;27;20224;-66
2022/09/28 05:36:31;;;;;;;0.75;0.40;;;;;;;;;;5135984;27;20209;-66
2022/09/28 05:39:02;;;;;;;0.30;0.30;;;;;;;;;;5134645;27;20532;-66
2022/09/28 05:41:29;;;;;;;0.40;0.40;;;;;;;;;;5134177;27;20226;-66
2022/09/28 05:43:57;;;;;;;0.40;0.40;;;;;;;;;;5135992;27;20237;-66
2022/09/28 05:46:25;;;;;;;0.40;0.40;;;;;;;;;;5135024;27;20296;-66
2022/09/28 05:48:53;;;;;;;2.08;0.50;;;;;;;;;;5135342;28;20702;-66
2022/09/28 05:51:20;;;;;;;1.10;0.40;;;;;;;;;;5134923;28;20288;-66
2022/09/28 05:53:48;;;;;;;1.38;0.52;;;;;;;;;;5134219;28;20198;-66
2022/09/28 05:56:17;;;;;;;0.77;0.40;;;;;;;;;;5134618;28;20202;-66
2022/09/28 05:58:44;;;;;;;0.52;0.40;;;;;;;;;;5135168;27;20202;-66
2022/09/28 06:01:11;;;;;;;1.05;0.40;;;;;;;;;;5135270;27;20258;-65
2022/09/28 06:03:39;;;;;;;0.40;0.40;;;;;;;;;;5134818;28;20196;-65
2022/09/28 06:06:06;;;;;;;0.40;0.40;;;;;;;;;;5135774;28;20253;-66
2022/09/28 06:08:34;;;;;;;0.40;0.40;;;;;;;;;;5136283;28;20296;-65
2022/09/28 06:11:02;;;;;;;0.40;0.40;;;;;;;;;;5142347;27;20236;-66
2022/09/28 06:13:31;;;;;;;0.40;0.40;;;;;;;;;;5138340;27;20229;-66
2022/09/28 06:15:58;;;;;;;0.47;0.30;;;;;;;;;;5135163;28;20193;-65
2022/09/28 06:18:26;;;;;;;0.40;0.40;;;;;;;;;;5134604;28;20204;-67
2022/09/28 06:20:53;;;;;;;0.45;0.35;;;;;;;;;;5135508;28;20273;-67
2022/09/28 06:23:21;;;;;;;0.57;0.50;;;;;;;;;;5128354;28;20195;-67
2022/09/28 06:25:48;;;;;;;1.02;0.50;;;;;;;;;;5135983;28;20206;-66
2022/09/28 06:28:15;;;;;;;1.05;0.50;;;;;;;;;;5123850;28;20647;-66
2022/09/28 06:30:46;;;;;;;0.70;0.40;;;;;;;;;;5127882;28;20202;-67
2022/09/28 06:33:15;;;;;;;1.15;0.40;;;;;;;;;;5128179;28;20198;-67
2022/09/28 06:35:43;;;;;;;0.40;0.40;;;;;;;;;;5135712;28;20575;-68
2022/09/28 06:38:10;;;;;;;1.15;0.40;;;;;;;;;;5134416;28;20268;-67
2022/09/28 06:40:38;;;;;;;0.47;0.40;;;;;;;;;;5135307;28;20415;-67
2022/09/28 06:43:09;;;;;;;0.50;0.40;;;;;;;;;;5121158;28;20199;-67
2022/09/28 06:45:37;;;;;;;0.65;0.50;;;;;;;;;;5134718;28;20574;-67
2022/09/28 06:48:06;;;;;;;0.55;0.40;;;;;;;;;;5135080;28;20226;-67
2022/09/28 06:50:36;;;;;;;0.30;0.30;;;;;;;;;;5135167;28;20281;-67
2022/09/28 06:53:04;;;;;;;1.10;0.40;;;;;;;;;;5120908;28;20195;-67
2022/09/28 06:55:32;;;;;;;1.25;0.40;;;;;;;;;;5133953;27;20217;-67
2022/09/28 06:58:00;;;;;;;0.60;0.40;;;;;;;;;;5135634;27;20301;-67
2022/09/28 07:00:28;;;;;;;0.47;0.40;;;;;;;;;;5138568;27;20525;-66
2022/09/28 07:02:55;;;;;;;1.13;0.40;;;;;;;;;;5136987;27;20230;-67
2022/09/28 07:05:26;;;;;;;1.05;0.40;;;;;;;;;;5138464;27;20498;-66
2022/09/28 07:07:54;;;;;;;0.35;0.35;;;;;;;;;;5138314;27;20290;-66
2022/09/28 07:10:22;;;;;;;0.40;0.40;;;;;;;;;;5132232;27;20197;-67
2022/09/28 07:12:50;;;;;;;0.40;0.40;;;;;;;;;;5131014;27;20198;-67
2022/09/28 07:15:17;;;;;;;0.40;0.40;;;;;;;;;;5138660;27;20340;-66
2022/09/28 07:17:45;;;;;;;0.93;0.47;;;;;;;;;;5138506;27;20202;-67
2022/09/28 07:20:12;;;;;;;0.47;0.30;;;;;;;;;;5138422;27;20333;-67
2022/09/28 07:22:41;;;;;;;0.57;0.50;;;;;;;;;;5137180;27;20236;-66
2022/09/28 07:25:09;;;;;;;0.45;0.45;;;;;;;;;;5134814;27;20198;-66
2022/09/28 07:27:37;;;;;;;0.60;0.50;;;;;;;;;;5133114;27;20234;-66
2022/09/28 07:30:05;;;;;;;0.57;0.40;;;;;;;;;;5138705;27;20194;-66
2022/09/28 07:32:36;;;;;;;0.43;0.32;;;;;;;;;;5131635;27;20218;-66
2022/09/28 07:35:06;;;;;;;0.63;0.40;;;;;;;;;;5138113;27;20237;-66
2022/09/28 07:37:34;;;;;;;1.95;0.40;;;;;;;;;;5138261;27;20254;-66
2022/09/28 07:42:49;;;;;;;0.50;0.50;;;;;;;;;;5127413;27;20225;-66
2022/09/28 07:45:17;;;;;;;0.40;0.40;;;;;;;;;;5134041;27;20302;-66
2022/09/28 07:47:44;;;;;;;0.60;0.50;;;;;;;;;;5137602;27;20247;-65
2022/09/28 07:50:12;;;;;;;0.50;0.50;;;;;;;;;;5137900;27;20206;-65
2022/09/28 07:52:39;;;;;;;0.70;0.50;;;;;;;;;;5128188;27;20480;-66
2022/09/28 07:55:09;;;;;;;0.40;0.40;;;;;;;;;;5132833;27;20656;-66
2022/09/28 07:57:36;;;;;;;0.88;0.30;;;;;;;;;;5138336;27;20275;-65
2022/09/28 08:00:07;;;;;;;0.73;0.43;;;;;;;;;;5138518;27;20538;-65
2022/09/28 08:02:34;;;;;;;0.98;0.50;;;;;;;;;;5137748;27;20249;-66
2022/09/28 08:05:01;;;;;;;0.40;0.40;;;;;;;;;;5137904;27;20289;-66
2022/09/28 08:07:29;;;;;;;0.70;0.50;;;;;;;;;;5138071;27;20201;-66
2022/09/28 08:09:57;;;;;;;0.45;0.40;;;;;;;;;;5134844;27;20271;-65
2022/09/28 08:12:26;;;;;;;0.95;0.50;;;;;;;;;;5126312;27;20273;-66
2022/09/28 08:14:53;;;;;;;0.50;0.30;;;;;;;;;;5137939;27;20586;-66
2022/09/28 08:17:21;;;;;;;0.30;0.30;;;;;;;;;;5137520;27;20290;-66
2022/09/28 08:22:33;;;;;;;0.40;0.30;;;;;;;;;;5136882;27;20248;-66
2022/09/28 08:25:01;;;;;;;0.38;0.30;;;;;;;;;;5137409;27;20206;-66
2022/09/28 08:27:30;;;;;;;0.30;0.30;;;;;;;;;;5133621;27;20572;-66
2022/09/28 08:29:57;;;;;;;0.60;0.40;;;;;;;;;;5136672;27;20234;-66
2022/09/28 08:32:25;;;;;;;0.32;0.30;;;;;;;;;;5132737;27;20598;-65
2022/09/28 08:34:54;;;;;;;0.40;0.40;;;;;;;;;;5137636;27;20301;-65
2022/09/28 08:37:22;;;;;;;0.30;0.30;;;;;;;;;;5137688;27;20768;-67
2022/09/28 08:39:49;;;;;;;0.40;0.40;;;;;;;;;;5137282;27;20209;-66
2022/09/28 08:42:23;;;;;;;0.30;0.30;;;;;;;;;;5131472;27;20298;-67
2022/09/28 08:44:56;;;;;;;0.40;0.40;;;;;;;;;;5130510;27;20198;-66
2022/09/28 08:50:14;;;;;;;0.40;0.30;;;;;;;;;;5136138;27;20295;-66
2022/09/28 08:52:41;;;;;;;0.40;0.40;;;;;;;;;;5130468;27;20195;-65
2022/09/28 08:55:12;;;;;;;0.70;0.30;;;;;;;;;;5132731;27;20233;-66
2022/09/28 08:57:44;;;;;;;0.75;0.40;;;;;;;;;;5136998;27;20305;-66
2022/09/28 09:00:19;;;;;;;0.75;0.43;;;;;;;;;;5136186;27;20310;-66
2022/09/28 09:02:46;;;;;;;0.30;0.30;;;;;;;;;;5136071;27;20221;-65
2022/09/28 09:05:15;;;;;;;0.40;0.40;;;;;;;;;;5136306;27;20241;-66
2022/09/28 09:08:01;;;;;;;1.20;0.40;;;;;;;;;;5136810;27;20198;-66
2022/09/28 09:10:43;;;;;;;0.32;0.30;;;;;;;;;;5115350;27;20226;-66
2022/09/28 09:13:17;;;;;;;0.30;0.30;;;;;;;;;;5131324;27;20293;-66
2022/09/28 09:15:50;;;;;;;0.40;0.40;;;;;;;;;;5136198;27;20213;-66
2022/09/28 09:18:22;;;;;;;0.30;0.30;;;;;;;;;;5135682;27;20263;-65
2022/09/28 09:20:52;;;;;;;0.30;0.30;;;;;;;;;;5135432;27;20241;-67
2022/09/28 09:23:24;;;;;;;0.98;0.30;;;;;;;;;;5124557;27;20308;-65
2022/09/28 09:25:53;;;;;;;0.40;0.40;;;;;;;;;;5135889;27;20214;-66
2022/09/28 09:28:38;;;;;;;0.30;0.30;;;;;;;;;;5135150;27;20198;-65
2022/09/28 09:31:15;;;;;;;0.30;0.30;;;;;;;;;;5135699;27;20293;-65
2022/09/28 09:33:53;;;;;;;0.40;0.30;;;;;;;;;;5134956;27;20289;-66
2022/09/28 09:36:26;;;;;;;0.40;0.40;;;;;;;;;;5135489;27;20242;-65
2022/09/28 09:38:58;;;;;;;0.47;0.30;;;;;;;;;;5136229;27;20210;-66
2022/09/28 09:41:32;;;;;;;0.70;0.50;;;;;;;;;;5134997;27;20309;-66
2022/09/28 09:44:07;;;;;;;0.47;0.38;;;;;;;;;;5135711;27;20198;-66
2022/09/28 09:46:38;;;;;;;0.35;0.30;;;;;;;;;;5135665;28;20217;-66
2022/09/28 09:49:09;;;;;;;1.80;0.40;;;;;;;;;;5135793;28;20245;-65
2022/09/28 09:51:41;;;;;;;0.57;0.40;;;;;;;;;;5135637;28;20206;-66
2022/09/28 09:54:13;;;;;;;0.40;0.30;;;;;;;;;;5134471;28;20629;-65
2022/09/28 09:56:44;;;;;;;0.35;0.35;;;;;;;;;;5135031;28;20236;-66
2022/09/28 09:59:14;;;;;;;0.98;0.60;;;;;;;;;;5135025;28;20589;-66
2022/09/28 10:01:43;;;;;;;0.75;0.50;;;;;;;;;;5134261;28;20264;-66
2022/09/28 10:04:16;;;;;;;0.82;0.43;;;;;;;;;;5124256;28;20237;-66
2022/09/28 10:06:44;;;;;;;1.17;0.40;;;;;;;;;;5135313;28;20293;-65
2022/09/28 10:09:14;;;;;;;1.08;0.68;;;;;;;;;;5135080;27;20202;-66
2022/09/28 10:11:44;;;;;;;2.35;0.60;;;;;;;;;;5134588;27;20198;-66
2022/09/28 10:14:14;;;;;;;1.30;0.82;;;;;;;;;;5134632;28;20297;-65
2022/09/28 10:16:43;;;;;;;1.05;0.70;;;;;;;;;;5134892;28;20298;-66
2022/09/28 10:19:11;;;;;;;0.80;0.60;;;;;;;;;;5134586;28;20726;-65
2022/09/28 10:21:39;;;;;;;0.90;0.55;;;;;;;;;;5134649;28;20328;-65
2022/09/28 10:24:15;;;;;;;0.80;0.75;;;;;;;;;;5124872;28;20199;-65
2022/09/28 10:26:45;;;;;;;1.38;0.63;;;;;;;;;;5134691;28;20296;-65
2022/09/28 10:29:14;;;;;;;0.80;0.65;;;;;;;;;;5134701;27;20201;-65
2022/09/28 10:31:44;;;;;;;1.27;0.80;;;;;;;;;;5135206;27;20208;-66
2022/09/28 10:34:13;;;;;;;1.05;0.73;;;;;;;;;;5137556;27;20255;-65
2022/09/28 10:36:46;;;;;;;0.82;0.80;;;;;;;;;;5138530;27;20237;-65
2022/09/28 10:39:24;;;;;;;1.35;0.80;;;;;;;;;;5138901;27;20784;-65
2022/09/28 10:41:52;;;;;;;1.25;0.70;;;;;;;;;;5138830;27;20229;-65
2022/09/28 10:44:21;;;;;;;1.42;1.08;;;;;;;;;;5127989;27;20621;-65
2022/09/28 10:46:57;;;;;;;1.75;0.80;;;;;;;;;;5137818;27;20509;-66
2022/09/28 10:49:27;;;;;;;1.50;0.90;;;;;;;;;;5138251;27;20280;-65
2022/09/28 10:51:56;;;;;;;1.85;0.88;;;;;;;;;;5137855;27;20206;-65
2022/09/28 10:54:24;;;;;;;1.27;0.98;;;;;;;;;;5118816;27;20195;-65
2022/09/28 10:56:53;;;;;;;1.70;1.00;;;;;;;;;;5137920;27;20202;-66
2022/09/28 10:59:24;;;;;;;2.58;1.00;;;;;;;;;;5138540;27;20729;-67
2022/09/28 11:01:54;;;;;;;1.20;0.90;;;;;;;;;;5137560;27;20264;-67
2022/09/28 11:04:25;;;;;;;1.02;0.80;;;;;;;;;;5137327;27;20526;-67
2022/09/28 11:06:53;;;;;;;1.80;1.05;;;;;;;;;;5137468;27;20275;-66
2022/09/28 11:09:26;;;;;;;1.20;0.90;;;;;;;;;;5137058;27;20549;-66
2022/09/28 11:11:54;;;;;;;1.13;0.80;;;;;;;;;;5123072;27;20213;-66
2022/09/28 11:14:25;;;;;;;1.33;1.00;;;;;;;;;;5137321;27;20244;-66
2022/09/28 11:17:08;;;;;;;1.35;1.05;;;;;;;;;;5137322;27;20746;-67
2022/09/28 11:19:37;;;;;;;2.03;1.10;;;;;;;;;;5136028;27;20202;-67
2022/09/28 11:22:20;;;;;;;1.50;0.90;;;;;;;;;;5137321;27;20238;-67
2022/09/28 11:24:47;;;;;;;1.92;0.98;;;;;;;;;;5117119;28;20195;-65
2022/09/28 11:27:20;;;;;;;1.33;1.00;;;;;;;;;;5120572;27;20218;-65
2022/09/28 11:29:53;;;;;;;1.05;0.88;;;;;;;;;;5138177;27;20206;-65
2022/09/28 11:32:21;;;;;;;1.00;0.90;;;;;;;;;;5137764;27;20190;-66
2022/09/28 11:34:52;;;;;;;1.00;0.90;;;;;;;;;;5137239;27;20471;-65
2022/09/28 11:37:37;;;;;;;1.27;0.80;;;;;;;;;;5137934;27;20213;-67
2022/09/28 11:40:15;;;;;;;0.80;0.80;;;;;;;;;;5137486;27;20293;-67
2022/09/28 11:42:46;;;;;;;1.38;0.77;;;;;;;;;;5136926;27;20257;-66
2022/09/28 11:45:25;;;;;;;1.02;0.80;;;;;;;;;;5135597;27;20331;-65
2022/09/28 11:47:55;;;;;;;1.50;0.98;;;;;;;;;;5136304;27;20561;-65
2022/09/28 11:50:27;;;;;;;1.17;1.00;;;;;;;;;;5136083;27;20241;-65
2022/09/28 11:52:58;;;;;;;0.80;0.80;;;;;;;;;;5134004;27;20230;-66
2022/09/28 11:55:30;;;;;;;1.10;0.90;;;;;;;;;;5136105;27;20199;-65
2022/09/28 11:58:02;;;;;;;0.93;0.80;;;;;;;;;;5135160;27;20578;-65
2022/09/28 12:00:31;;;;;;;0.68;0.63;;;;;;;;;;5136604;27;20208;-67
2022/09/28 12:03:01;;;;;;;0.70;0.65;;;;;;;;;;5121943;27;20218;-65
2022/09/28 12:05:32;;;;;;;1.35;0.80;;;;;;;;;;5134923;27;20202;-65
2022/09/28 12:08:02;;;;;;;1.10;1.00;;;;;;;;;;5136438;27;20219;-65
2022/09/28 12:10:34;;;;;;;0.93;0.88;;;;;;;;;;5135357;27;20662;-66
2022/09/28 12:13:03;;;;;;;0.82;0.73;;;;;;;;;;5135325;27;20233;-65
2022/09/28 12:15:34;;;;;;;1.10;0.70;;;;;;;;;;5136224;27;20230;-65
2022/09/28 12:18:03;;;;;;;0.90;0.80;;;;;;;;;;5135519;27;20241;-66
2022/09/28 12:20:34;;;;;;;0.93;0.70;;;;;;;;;;5135928;27;20238;-67
2022/09/28 12:23:03;;;;;;;1.30;0.70;;;;;;;;;;5135005;27;20316;-65
2022/09/28 12:25:36;;;;;;;1.20;0.82;;;;;;;;;;5134796;27;20706;-67
2022/09/28 12:28:07;;;;;;;0.80;0.77;;;;;;;;;;5124402;27;20199;-67
2022/09/28 12:30:36;;;;;;;0.90;0.80;;;;;;;;;;5134330;27;20677;-67
2022/09/28 12:33:05;;;;;;;0.88;0.68;;;;;;;;;;5126973;27;20230;-67
2022/09/28 12:35:43;;;;;;;0.88;0.80;;;;;;;;;;5134519;27;20198;-67
2022/09/28 12:38:23;;;;;;;0.75;0.65;;;;;;;;;;5134248;27;20194;-67
2022/09/28 12:40:53;;;;;;;1.13;0.80;;;;;;;;;;5135531;27;20202;-67
2022/09/28 12:43:54;;;;;;;0.85;0.70;;;;;;;;;;5119194;27;20219;-65
2022/09/28 12:46:33;;;;;;;0.68;0.65;;;;;;;;;;5031696;28;20204;-67
2022/09/28 12:49:17;;;;;;;0.93;0.70;;;;;;;;;;5030833;28;20306;-67
2022/09/28 12:51:48;;;;;;;0.60;0.60;;;;;;;;;;5082833;27;20202;-67
2022/09/28 12:54:24;;;;;;;0.60;0.60;;;;;;;;;;5103017;27;20669;-65
2022/09/28 12:56:59;;;;;;;1.17;0.77;;;;;;;;;;5115940;27;20198;-65
2022/09/28 12:59:28;;;;;;;1.00;0.70;;;;;;;;;;5113056;27;20238;-65
2022/09/28 13:02:10;;;;;;;0.70;0.65;;;;;;;;;;5124842;27;20281;-67
2022/09/28 13:04:50;;;;;;;0.82;0.70;;;;;;;;;;5135338;27;20296;-66
2022/09/28 13:07:21;;;;;;;0.80;0.70;;;;;;;;;;5135359;27;20650;-66
2022/09/28 13:09:53;;;;;;;0.98;0.70;;;;;;;;;;5132978;27;20347;-67
2022/09/28 13:12:25;;;;;;;0.60;0.60;;;;;;;;;;5119092;27;20186;-67
2022/09/28 13:15:20;;;;;;;0.77;0.65;;;;;;;;;;5135209;27;20198;-66
2022/09/28 13:17:51;;;;;;;0.82;0.68;;;;;;;;;;5127133;27;20198;-66
2022/09/28 13:20:24;;;;;;;0.70;0.60;;;;;;;;;;5134432;27;20536;-65
2022/09/28 13:22:55;;;;;;;1.02;0.50;;;;;;;;;;5128317;27;20222;-67
2022/09/28 13:25:25;;;;;;;0.60;0.60;;;;;;;;;;5134705;27;20309;-67
2022/09/28 13:27:56;;;;;;;0.50;0.50;;;;;;;;;;5129617;27;20217;-67
2022/09/28 13:30:24;;;;;;;0.75;0.60;;;;;;;;;;5134142;27;20662;-67
2022/09/28 13:32:53;;;;;;;0.80;0.50;;;;;;;;;;5126969;27;20633;-67
2022/09/28 13:35:20;;;;;;;0.60;0.60;;;;;;;;;;5131811;27;20206;-67
2022/09/28 13:37:48;;;;;;;0.60;0.60;;;;;;;;;;5134388;27;20288;-66
2022/09/28 13:40:17;;;;;;;1.00;0.88;;;;;;;;;;5135251;27;20198;-65
2022/09/28 13:42:55;;;;;;;0.60;0.60;;;;;;;;;;5124304;27;20227;-65
2022/09/28 13:45:57;;;;;;;0.60;0.60;;;;;;;;;;5130114;28;20194;-66
2022/09/28 13:48:28;;;;;;;0.68;0.68;;;;;;;;;;5030117;28;20593;-65
2022/09/28 13:51:05;;;;;;;0.90;0.85;;;;;;;;;;5030457;28;20216;-66
2022/09/28 13:53:37;;;;;;;0.75;0.63;;;;;;;;;;5086640;27;20202;-66
2022/09/28 13:56:15;;;;;;;0.60;0.60;;;;;;;;;;5134130;28;20674;-65
2022/09/28 13:58:44;;;;;;;0.77;0.60;;;;;;;;;;5134318;28;20212;-65
2022/09/28 14:01:14;;;;;;;0.43;0.43;;;;;;;;;;5134238;27;20262;-66
2022/09/28 14:03:44;;;;;;;0.68;0.63;;;;;;;;;;5133390;27;20217;-65
2022/09/28 14:06:23;;;;;;;0.65;0.60;;;;;;;;;;5133498;27;20210;-65
2022/09/28 14:09:08;;;;;;;0.50;0.50;;;;;;;;;;5138012;27;20263;-65
2022/09/28 14:11:43;;;;;;;0.80;0.60;;;;;;;;;;5123169;27;20301;-66
2022/09/28 14:14:25;;;;;;;0.57;0.50;;;;;;;;;;5117427;28;20206;-66
2022/09/28 14:16:59;;;;;;;0.63;0.50;;;;;;;;;;5113049;28;20198;-65
2022/09/28 14:19:30;;;;;;;1.50;0.70;;;;;;;;;;5117956;28;20244;-66
2022/09/28 14:22:08;;;;;;;1.10;0.80;;;;;;;;;;5119230;27;20237;-65
2022/09/28 14:24:42;;;;;;;0.80;0.80;;;;;;;;;;5137280;27;20218;-66
2022/09/28 14:27:24;;;;;;;0.90;0.90;;;;;;;;;;5134537;27;20205;-66
2022/09/28 14:29:56;;;;;;;0.80;0.80;;;;;;;;;;5144174;27;20274;-65
2022/09/28 14:32:25;;;;;;;1.83;0.70;;;;;;;;;;5120780;27;20202;-65
2022/09/28 14:34:57;;;;;;;5.28;4.88;;;;;;;;;;5109777;27;20818;-65
2022/09/28 14:43:25;;;;;;;45.15;41.25;;;;;;;;;;5124336;27;20233;-66
2022/09/28 14:46:13;;;;;;;47.72;43.63;;;;;;;;;;5138045;27;20245;-65
2022/09/28 14:48:47;;;;;;;31.75;29.05;;;;;;;;;;5138343;27;20202;-65
2022/09/28 14:51:34;;;;;;;31.25;28.65;;;;;;;;;;5128432;27;20190;-66
2022/09/28 14:54:03;;;;;;;28.73;26.23;;;;;;;;;;5132669;27;20198;-66
2022/09/28 14:56:33;;;;;;;25.40;23.27;;;;;;;;;;5137067;27;20200;-65
2022/09/28 14:59:01;;;;;;;25.05;22.95;;;;;;;;;;5137750;27;20194;-65
2022/09/28 15:01:29;;;;;;;23.77;21.70;;;;;;;;;;5130079;27;20194;-65
2022/09/28 15:04:00;;;;;;;20.98;19.23;;;;;;;;;;5138152;27;20236;-65
2022/09/28 15:06:27;;;;;;;19.75;18.13;;;;;;;;;;5138047;27;20198;-65
2022/09/28 15:08:55;;;;;;;19.67;18.08;;;;;;;;;;5138018;27;20679;-65
2022/09/28 15:11:24;;;;;;;16.90;15.52;;;;;;;;;;5136545;27;20339;-66
2022/09/28 15:13:54;;;;;;;16.27;14.98;;;;;;;;;;5123900;27;20282;-66
2022/09/28 15:16:24;;;;;;;15.27;14.07;;;;;;;;;;5138961;27;20608;-66
2022/09/28 15:19:06;;;;;;;15.02;13.73;;;;;;;;;;5135743;27;20213;-65